sensor_id;sensor_type;location;lat;lon;timestamp;temperature;humidity
31733;DHT22;18312;51.486;7.144;2023-09-19T00:00:19;15.70;99.90
31733;DHT22;18312;51.486;7.144;2023-09-19T00:02:46;15.60;99.90
31733;DHT22;18312;51.486;7.144;2023-09-19T00:05:14;15.60;99.90
31733;DHT22;18312;51.486;7.144;2023-09-19T00:07:41;15.50;99.90
31733;DHT22;18312;51.486;7.144;2023-09-19T00:10:08;15.60;99.90
31733;DHT22;18312;51.486;7.144;2023-09-19T00:12:36;15.50;99.90
31733;DHT22;18312;51.486;7.144;2023-09-19T00:15:03;15.40;99.90
31733;DHT22;18312;51.486;7.144;2023-09-19T00:17:32;15.30;99.90
31733;DHT22;18312;51.486;7.144;2023-09-19T00:20:00;15.40;99.90
31733;DHT22;18312;51.486;7.144;2023-09-19T00:22:34;15.30;99.90
31733;DHT22;18312;51.486;7.144;2023-09-19T00:25:01;15.30;99.90
31733;DHT22;18312;51.486;7.144;2023-09-19T00:27:30;15.30;99.90
31733;DHT22;18312;51.486;7.144;2023-09-19T00:29:58;15.30;99.90
31733;DHT22;18312;51.486;7.144;2023-09-19T00:32:25;15.30;99.90
31733;DHT22;18312;51.486;7.144;2023-09-19T00:35:04;15.20;99.90
31733;DHT22;18312;51.486;7.144;2023-09-19T00:37:31;15.30;99.90
31733;DHT22;18312;51.486;7.144;2023-09-19T00:39:59;15.30;99.90
31733;DHT22;18312;51.486;7.144;2023-09-19T00:42:26;15.30;99.90
31733;DHT22;18312;51.486;7.144;2023-09-19T00:44:53;15.30;99.90
31733;DHT22;18312;51.486;7.144;2023-09-19T00:47:20;15.40;99.90
31733;DHT22;18312;51.486;7.144;2023-09-19T00:49:46;15.30;99.90
31733;DHT22;18312;51.486;7.144;2023-09-19T00:52:16;15.30;99.90
31733;DHT22;18312;51.486;7.144;2023-09-19T00:54:45;15.30;99.90
31733;DHT22;18312;51.486;7.144;2023-09-19T00:57:13;15.20;99.90
31733;DHT22;18312;51.486;7.144;2023-09-19T00:59:41;15.20;99.90
31733;DHT22;18312;51.486;7.144;2023-09-19T01:02:07;15.20;99.90
31733;DHT22;18312;51.486;7.144;2023-09-19T01:04:34;15.20;99.90
31733;DHT22;18312;51.486;7.144;2023-09-19T01:07:01;15.20;99.90
31733;DHT22;18312;51.486;7.144;2023-09-19T01:09:29;15.20;99.90
31733;DHT22;18312;51.486;7.144;2023-09-19T01:11:57;15.20;99.90
31733;DHT22;18312;51.486;7.144;2023-09-19T01:14:28;15.20;99.90
31733;DHT22;18312;51.486;7.144;2023-09-19T01:16:59;15.10;99.90
31733;DHT22;18312;51.486;7.144;2023-09-19T01:19:34;15.20;99.90
31733;DHT22;18312;51.486;7.144;2023-09-19T01:22:13;15.10;99.90
31733;DHT22;18312;51.486;7.144;2023-09-19T01:27:38;15.10;99.90
31733;DHT22;18312;51.486;7.144;2023-09-19T01:30:10;15.00;99.90
31733;DHT22;18312;51.486;7.144;2023-09-19T01:32:37;15.10;99.90
31733;DHT22;18312;51.486;7.144;2023-09-19T01:35:06;15.00;99.90
31733;DHT22;18312;51.486;7.144;2023-09-19T01:37:37;15.00;99.90
31733;DHT22;18312;51.486;7.144;2023-09-19T01:40:05;15.00;99.90
31733;DHT22;18312;51.486;7.144;2023-09-19T01:42:41;15.00;99.90
31733;DHT22;18312;51.486;7.144;2023-09-19T01:45:12;14.90;99.90
31733;DHT22;18312;51.486;7.144;2023-09-19T01:47:41;14.90;99.90
31733;DHT22;18312;51.486;7.144;2023-09-19T01:50:13;14.90;99.90
31733;DHT22;18312;51.486;7.144;2023-09-19T01:52:43;14.80;99.90
31733;DHT22;18312;51.486;7.144;2023-09-19T01:55:12;14.80;99.90
31733;DHT22;18312;51.486;7.144;2023-09-19T01:57:45;14.80;99.90
31733;DHT22;18312;51.486;7.144;2023-09-19T02:00:16;14.80;99.90
31733;DHT22;18312;51.486;7.144;2023-09-19T02:02:46;14.80;99.90
31733;DHT22;18312;51.486;7.144;2023-09-19T02:05:13;14.70;99.90
31733;DHT22;18312;51.486;7.144;2023-09-19T02:07:48;14.70;99.90
31733;DHT22;18312;51.486;7.144;2023-09-19T02:10:15;14.70;99.90
31733;DHT22;18312;51.486;7.144;2023-09-19T02:12:42;14.70;99.90
31733;DHT22;18312;51.486;7.144;2023-09-19T02:15:10;14.70;99.90
31733;DHT22;18312;51.486;7.144;2023-09-19T02:17:38;14.70;99.90
31733;DHT22;18312;51.486;7.144;2023-09-19T02:20:05;14.70;99.90
31733;DHT22;18312;51.486;7.144;2023-09-19T02:22:39;14.60;99.90
31733;DHT22;18312;51.486;7.144;2023-09-19T02:25:05;14.60;99.90
31733;DHT22;18312;51.486;7.144;2023-09-19T02:27:32;14.60;99.90
31733;DHT22;18312;51.486;7.144;2023-09-19T02:29:59;14.60;99.90
31733;DHT22;18312;51.486;7.144;2023-09-19T02:32:29;14.60;99.90
31733;DHT22;18312;51.486;7.144;2023-09-19T02:34:58;14.60;99.90
31733;DHT22;18312;51.486;7.144;2023-09-19T02:37:24;14.50;99.90
31733;DHT22;18312;51.486;7.144;2023-09-19T02:39:51;14.50;99.90
31733;DHT22;18312;51.486;7.144;2023-09-19T02:42:18;14.50;99.90
31733;DHT22;18312;51.486;7.144;2023-09-19T02:44:46;14.50;99.90
31733;DHT22;18312;51.486;7.144;2023-09-19T02:47:13;14.50;99.90
31733;DHT22;18312;51.486;7.144;2023-09-19T02:49:42;14.50;99.90
31733;DHT22;18312;51.486;7.144;2023-09-19T02:52:10;14.50;99.90
31733;DHT22;18312;51.486;7.144;2023-09-19T02:54:39;14.50;99.90
31733;DHT22;18312;51.486;7.144;2023-09-19T02:57:07;14.50;99.90
31733;DHT22;18312;51.486;7.144;2023-09-19T02:59:35;14.50;99.90
31733;DHT22;18312;51.486;7.144;2023-09-19T03:02:02;14.50;99.90
31733;DHT22;18312;51.486;7.144;2023-09-19T03:04:30;14.50;99.90
31733;DHT22;18312;51.486;7.144;2023-09-19T03:06:56;14.40;99.90
31733;DHT22;18312;51.486;7.144;2023-09-19T03:09:27;14.50;99.90
31733;DHT22;18312;51.486;7.144;2023-09-19T03:11:53;14.40;99.90
31733;DHT22;18312;51.486;7.144;2023-09-19T03:14:20;14.40;99.90
31733;DHT22;18312;51.486;7.144;2023-09-19T03:16:48;14.50;99.90
31733;DHT22;18312;51.486;7.144;2023-09-19T03:19:14;14.40;99.90
31733;DHT22;18312;51.486;7.144;2023-09-19T03:21:41;14.40;99.90
31733;DHT22;18312;51.486;7.144;2023-09-19T03:24:08;14.40;99.90
31733;DHT22;18312;51.486;7.144;2023-09-19T03:26:36;14.40;99.90
31733;DHT22;18312;51.486;7.144;2023-09-19T03:29:03;14.30;99.90
31733;DHT22;18312;51.486;7.144;2023-09-19T03:31:31;14.30;99.90
31733;DHT22;18312;51.486;7.144;2023-09-19T03:33:58;14.30;99.90
31733;DHT22;18312;51.486;7.144;2023-09-19T03:36:25;14.30;99.90
31733;DHT22;18312;51.486;7.144;2023-09-19T03:38:53;14.20;99.90
31733;DHT22;18312;51.486;7.144;2023-09-19T03:41:20;14.20;99.90
31733;DHT22;18312;51.486;7.144;2023-09-19T03:43:48;14.30;99.90
31733;DHT22;18312;51.486;7.144;2023-09-19T03:46:15;14.20;99.90
31733;DHT22;18312;51.486;7.144;2023-09-19T03:48:41;14.20;99.90
31733;DHT22;18312;51.486;7.144;2023-09-19T03:51:08;14.10;99.90
31733;DHT22;18312;51.486;7.144;2023-09-19T03:53:36;14.20;99.90
31733;DHT22;18312;51.486;7.144;2023-09-19T03:56:02;14.10;99.90
31733;DHT22;18312;51.486;7.144;2023-09-19T03:58:29;14.10;99.90
31733;DHT22;18312;51.486;7.144;2023-09-19T04:00:57;14.20;99.90
31733;DHT22;18312;51.486;7.144;2023-09-19T04:03:24;14.10;99.90
31733;DHT22;18312;51.486;7.144;2023-09-19T04:06:00;14.00;99.90
31733;DHT22;18312;51.486;7.144;2023-09-19T04:08:26;14.10;99.90
31733;DHT22;18312;51.486;7.144;2023-09-19T04:10:53;14.10;99.90
31733;DHT22;18312;51.486;7.144;2023-09-19T04:13:20;14.00;99.90
31733;DHT22;18312;51.486;7.144;2023-09-19T04:15:47;14.10;99.90
31733;DHT22;18312;51.486;7.144;2023-09-19T04:18:15;14.00;99.90
31733;DHT22;18312;51.486;7.144;2023-09-19T04:20:41;14.00;99.90
31733;DHT22;18312;51.486;7.144;2023-09-19T04:23:13;14.00;99.90
31733;DHT22;18312;51.486;7.144;2023-09-19T04:25:40;14.00;99.90
31733;DHT22;18312;51.486;7.144;2023-09-19T04:28:08;14.00;99.90
31733;DHT22;18312;51.486;7.144;2023-09-19T04:30:35;14.00;99.90
31733;DHT22;18312;51.486;7.144;2023-09-19T04:33:02;14.00;99.90
31733;DHT22;18312;51.486;7.144;2023-09-19T04:35:32;14.00;99.90
31733;DHT22;18312;51.486;7.144;2023-09-19T04:37:58;14.00;99.90
31733;DHT22;18312;51.486;7.144;2023-09-19T04:40:25;13.90;99.90
31733;DHT22;18312;51.486;7.144;2023-09-19T04:42:53;14.00;99.90
31733;DHT22;18312;51.486;7.144;2023-09-19T04:45:21;14.00;99.90
31733;DHT22;18312;51.486;7.144;2023-09-19T04:47:47;14.10;99.90
31733;DHT22;18312;51.486;7.144;2023-09-19T04:50:14;14.00;99.90
31733;DHT22;18312;51.486;7.144;2023-09-19T04:52:44;14.00;99.90
31733;DHT22;18312;51.486;7.144;2023-09-19T04:55:11;14.00;99.90
31733;DHT22;18312;51.486;7.144;2023-09-19T04:57:41;14.00;99.90
31733;DHT22;18312;51.486;7.144;2023-09-19T05:00:08;14.00;99.90
31733;DHT22;18312;51.486;7.144;2023-09-19T05:02:40;14.00;99.90
31733;DHT22;18312;51.486;7.144;2023-09-19T05:05:06;14.00;99.90
31733;DHT22;18312;51.486;7.144;2023-09-19T05:07:33;14.00;99.90
31733;DHT22;18312;51.486;7.144;2023-09-19T05:10:02;14.00;99.90
31733;DHT22;18312;51.486;7.144;2023-09-19T05:12:33;14.00;99.90
31733;DHT22;18312;51.486;7.144;2023-09-19T05:15:00;14.00;99.90
31733;DHT22;18312;51.486;7.144;2023-09-19T05:17:28;14.00;99.90
31733;DHT22;18312;51.486;7.144;2023-09-19T05:19:59;14.10;99.90
31733;DHT22;18312;51.486;7.144;2023-09-19T05:22:31;14.10;99.90
31733;DHT22;18312;51.486;7.144;2023-09-19T05:24:59;14.10;99.90
31733;DHT22;18312;51.486;7.144;2023-09-19T05:27:29;14.10;99.90
31733;DHT22;18312;51.486;7.144;2023-09-19T05:29:56;14.10;99.90
31733;DHT22;18312;51.486;7.144;2023-09-19T05:32:23;14.10;99.90
31733;DHT22;18312;51.486;7.144;2023-09-19T05:34:50;14.20;99.90
31733;DHT22;18312;51.486;7.144;2023-09-19T05:37:18;14.20;99.90
31733;DHT22;18312;51.486;7.144;2023-09-19T05:39:45;14.10;99.90
31733;DHT22;18312;51.486;7.144;2023-09-19T05:42:12;14.20;99.90
31733;DHT22;18312;51.486;7.144;2023-09-19T05:44:40;14.30;99.90
31733;DHT22;18312;51.486;7.144;2023-09-19T05:47:07;14.20;99.90
31733;DHT22;18312;51.486;7.144;2023-09-19T05:49:34;14.30;99.90
31733;DHT22;18312;51.486;7.144;2023-09-19T05:52:04;14.30;99.90
31733;DHT22;18312;51.486;7.144;2023-09-19T05:54:30;14.30;99.90
31733;DHT22;18312;51.486;7.144;2023-09-19T05:56:58;14.40;99.90
31733;DHT22;18312;51.486;7.144;2023-09-19T05:59:25;14.40;99.90
31733;DHT22;18312;51.486;7.144;2023-09-19T06:01:53;14.50;99.90
31733;DHT22;18312;51.486;7.144;2023-09-19T06:04:20;14.50;99.90
31733;DHT22;18312;51.486;7.144;2023-09-19T06:06:47;14.60;99.90
31733;DHT22;18312;51.486;7.144;2023-09-19T06:09:14;14.60;99.90
31733;DHT22;18312;51.486;7.144;2023-09-19T06:11:41;14.60;99.90
31733;DHT22;18312;51.486;7.144;2023-09-19T06:14:08;14.60;99.90
31733;DHT22;18312;51.486;7.144;2023-09-19T06:16:35;14.60;99.90
31733;DHT22;18312;51.486;7.144;2023-09-19T06:19:04;14.70;99.90
31733;DHT22;18312;51.486;7.144;2023-09-19T06:21:34;14.60;99.90
31733;DHT22;18312;51.486;7.144;2023-09-19T06:24:01;14.70;99.90
31733;DHT22;18312;51.486;7.144;2023-09-19T06:26:28;14.70;99.90
31733;DHT22;18312;51.486;7.144;2023-09-19T06:28:56;14.70;99.90
31733;DHT22;18312;51.486;7.144;2023-09-19T06:31:23;14.80;99.90
31733;DHT22;18312;51.486;7.144;2023-09-19T06:33:51;14.80;99.90
31733;DHT22;18312;51.486;7.144;2023-09-19T06:36:19;14.90;99.90
31733;DHT22;18312;51.486;7.144;2023-09-19T06:38:46;14.90;99.90
31733;DHT22;18312;51.486;7.144;2023-09-19T06:41:14;14.90;99.90
31733;DHT22;18312;51.486;7.144;2023-09-19T06:43:42;14.90;99.90
31733;DHT22;18312;51.486;7.144;2023-09-19T06:46:09;15.00;99.90
31733;DHT22;18312;51.486;7.144;2023-09-19T06:48:38;15.00;99.90
31733;DHT22;18312;51.486;7.144;2023-09-19T06:51:05;15.00;99.90
31733;DHT22;18312;51.486;7.144;2023-09-19T06:53:33;15.00;99.90
31733;DHT22;18312;51.486;7.144;2023-09-19T06:56:00;15.10;99.90
31733;DHT22;18312;51.486;7.144;2023-09-19T06:58:27;15.10;99.90
31733;DHT22;18312;51.486;7.144;2023-09-19T07:00:53;15.20;99.90
31733;DHT22;18312;51.486;7.144;2023-09-19T07:03:21;15.20;99.90
31733;DHT22;18312;51.486;7.144;2023-09-19T07:05:51;15.30;99.90
31733;DHT22;18312;51.486;7.144;2023-09-19T07:08:18;15.30;99.90
31733;DHT22;18312;51.486;7.144;2023-09-19T07:10:46;15.30;99.90
31733;DHT22;18312;51.486;7.144;2023-09-19T07:13:15;15.30;99.90
31733;DHT22;18312;51.486;7.144;2023-09-19T07:15:43;15.40;99.90
31733;DHT22;18312;51.486;7.144;2023-09-19T07:18:13;15.50;99.90
31733;DHT22;18312;51.486;7.144;2023-09-19T07:20:41;15.50;99.90
31733;DHT22;18312;51.486;7.144;2023-09-19T07:23:11;15.50;99.90
31733;DHT22;18312;51.486;7.144;2023-09-19T07:25:39;15.60;99.90
31733;DHT22;18312;51.486;7.144;2023-09-19T07:28:07;15.60;99.90
31733;DHT22;18312;51.486;7.144;2023-09-19T07:30:36;15.70;99.90
31733;DHT22;18312;51.486;7.144;2023-09-19T07:33:05;15.70;99.90
31733;DHT22;18312;51.486;7.144;2023-09-19T07:35:32;15.80;99.90
31733;DHT22;18312;51.486;7.144;2023-09-19T07:37:59;15.80;99.90
31733;DHT22;18312;51.486;7.144;2023-09-19T07:40:27;15.80;99.90
31733;DHT22;18312;51.486;7.144;2023-09-19T07:42:54;15.90;99.90
31733;DHT22;18312;51.486;7.144;2023-09-19T07:45:23;15.90;99.90
31733;DHT22;18312;51.486;7.144;2023-09-19T07:47:51;16.00;99.90
31733;DHT22;18312;51.486;7.144;2023-09-19T07:50:19;16.00;99.90
31733;DHT22;18312;51.486;7.144;2023-09-19T07:52:47;16.10;99.90
31733;DHT22;18312;51.486;7.144;2023-09-19T07:55:13;16.20;99.90
31733;DHT22;18312;51.486;7.144;2023-09-19T07:57:42;16.20;99.90
31733;DHT22;18312;51.486;7.144;2023-09-19T08:00:10;16.30;99.90
31733;DHT22;18312;51.486;7.144;2023-09-19T08:02:40;16.30;99.90
31733;DHT22;18312;51.486;7.144;2023-09-19T08:05:07;16.30;99.90
31733;DHT22;18312;51.486;7.144;2023-09-19T08:07:37;16.30;99.90
31733;DHT22;18312;51.486;7.144;2023-09-19T08:10:04;16.50;99.90
31733;DHT22;18312;51.486;7.144;2023-09-19T08:12:33;16.50;99.90
31733;DHT22;18312;51.486;7.144;2023-09-19T08:15:01;16.60;99.90
31733;DHT22;18312;51.486;7.144;2023-09-19T08:17:34;16.60;99.90
31733;DHT22;18312;51.486;7.144;2023-09-19T08:20:04;16.60;99.90
31733;DHT22;18312;51.486;7.144;2023-09-19T08:22:47;16.70;99.90
31733;DHT22;18312;51.486;7.144;2023-09-19T08:25:14;16.60;99.90
31733;DHT22;18312;51.486;7.144;2023-09-19T08:27:43;16.60;99.90
31733;DHT22;18312;51.486;7.144;2023-09-19T08:30:13;16.60;99.90
31733;DHT22;18312;51.486;7.144;2023-09-19T08:32:41;16.60;99.90
31733;DHT22;18312;51.486;7.144;2023-09-19T08:35:10;16.60;99.90
31733;DHT22;18312;51.486;7.144;2023-09-19T08:37:36;16.80;99.90
31733;DHT22;18312;51.486;7.144;2023-09-19T08:40:04;17.00;99.90
31733;DHT22;18312;51.486;7.144;2023-09-19T08:42:47;17.00;99.90
31733;DHT22;18312;51.486;7.144;2023-09-19T08:45:14;17.10;99.90
31733;DHT22;18312;51.486;7.144;2023-09-19T08:47:46;17.10;99.90
31733;DHT22;18312;51.486;7.144;2023-09-19T08:50:19;17.20;99.90
31733;DHT22;18312;51.486;7.144;2023-09-19T08:52:47;17.30;99.90
31733;DHT22;18312;51.486;7.144;2023-09-19T08:55:17;17.50;99.90
31733;DHT22;18312;51.486;7.144;2023-09-19T08:57:49;17.50;99.90
31733;DHT22;18312;51.486;7.144;2023-09-19T09:00:16;17.50;99.90
31733;DHT22;18312;51.486;7.144;2023-09-19T09:02:46;17.40;99.90
31733;DHT22;18312;51.486;7.144;2023-09-19T09:05:15;17.60;99.90
31733;DHT22;18312;51.486;7.144;2023-09-19T09:07:49;17.50;99.90
31733;DHT22;18312;51.486;7.144;2023-09-19T09:10:17;17.50;99.90
31733;DHT22;18312;51.486;7.144;2023-09-19T09:12:48;17.60;99.90
31733;DHT22;18312;51.486;7.144;2023-09-19T09:15:16;17.70;99.90
31733;DHT22;18312;51.486;7.144;2023-09-19T09:17:46;17.80;99.90
31733;DHT22;18312;51.486;7.144;2023-09-19T09:20:15;17.90;99.90
31733;DHT22;18312;51.486;7.144;2023-09-19T09:22:50;18.00;99.90
31733;DHT22;18312;51.486;7.144;2023-09-19T09:25:17;17.90;99.90
31733;DHT22;18312;51.486;7.144;2023-09-19T09:27:46;18.00;99.90
31733;DHT22;18312;51.486;7.144;2023-09-19T09:30:33;18.00;99.90
31733;DHT22;18312;51.486;7.144;2023-09-19T09:33:08;18.20;99.90
31733;DHT22;18312;51.486;7.144;2023-09-19T09:35:38;18.20;99.90
31733;DHT22;18312;51.486;7.144;2023-09-19T09:38:13;18.30;99.90
31733;DHT22;18312;51.486;7.144;2023-09-19T09:40:48;18.90;99.90
31733;DHT22;18312;51.486;7.144;2023-09-19T09:43:29;18.70;99.90
31733;DHT22;18312;51.486;7.144;2023-09-19T09:46:08;18.90;99.90
31733;DHT22;18312;51.486;7.144;2023-09-19T09:48:58;18.80;99.90
31733;DHT22;18312;51.486;7.144;2023-09-19T09:51:47;19.40;99.50
31733;DHT22;18312;51.486;7.144;2023-09-19T09:54:23;21.50;96.20
31733;DHT22;18312;51.486;7.144;2023-09-19T09:56:53;20.40;95.70
31733;DHT22;18312;51.486;7.144;2023-09-19T09:59:20;19.60;97.60
31733;DHT22;18312;51.486;7.144;2023-09-19T10:01:49;19.00;98.70
31733;DHT22;18312;51.486;7.144;2023-09-19T10:04:27;18.80;98.70
31733;DHT22;18312;51.486;7.144;2023-09-19T10:06:58;18.80;99.60
31733;DHT22;18312;51.486;7.144;2023-09-19T10:09:31;18.70;99.50
31733;DHT22;18312;51.486;7.144;2023-09-19T10:12:13;18.90;99.60
31733;DHT22;18312;51.486;7.144;2023-09-19T10:14:43;19.10;99.70
31733;DHT22;18312;51.486;7.144;2023-09-19T10:17:14;18.80;98.70
31733;DHT22;18312;51.486;7.144;2023-09-19T10:19:52;19.00;99.50
31733;DHT22;18312;51.486;7.144;2023-09-19T10:22:24;19.30;99.90
31733;DHT22;18312;51.486;7.144;2023-09-19T10:24:52;19.40;98.50
31733;DHT22;18312;51.486;7.144;2023-09-19T10:27:20;19.40;98.20
31733;DHT22;18312;51.486;7.144;2023-09-19T10:29:48;19.60;98.70
31733;DHT22;18312;51.486;7.144;2023-09-19T10:32:16;19.70;98.30
31733;DHT22;18312;51.486;7.144;2023-09-19T10:34:44;19.80;98.10
31733;DHT22;18312;51.486;7.144;2023-09-19T10:37:13;19.80;96.60
31733;DHT22;18312;51.486;7.144;2023-09-19T10:39:41;19.60;96.90
31733;DHT22;18312;51.486;7.144;2023-09-19T10:42:16;19.50;97.00
31733;DHT22;18312;51.486;7.144;2023-09-19T10:44:45;19.30;96.80
31733;DHT22;18312;51.486;7.144;2023-09-19T10:47:15;19.40;96.90
31733;DHT22;18312;51.486;7.144;2023-09-19T10:49:44;19.50;97.20
31733;DHT22;18312;51.486;7.144;2023-09-19T10:52:13;19.40;96.00
31733;DHT22;18312;51.486;7.144;2023-09-19T10:54:47;19.40;96.50
31733;DHT22;18312;51.486;7.144;2023-09-19T10:57:19;19.40;96.20
31733;DHT22;18312;51.486;7.144;2023-09-19T11:00:00;19.40;97.00
31733;DHT22;18312;51.486;7.144;2023-09-19T11:03:17;19.50;96.30
31733;DHT22;18312;51.486;7.144;2023-09-19T11:05:59;19.40;95.80
31733;DHT22;18312;51.486;7.144;2023-09-19T11:08:30;19.40;95.00
31733;DHT22;18312;51.486;7.144;2023-09-19T11:11:00;19.40;95.30
31733;DHT22;18312;51.486;7.144;2023-09-19T11:13:29;19.50;95.30
31733;DHT22;18312;51.486;7.144;2023-09-19T11:18:51;19.90;95.80
31733;DHT22;18312;51.486;7.144;2023-09-19T11:24:27;19.90;94.50
31733;DHT22;18312;51.486;7.144;2023-09-19T11:27:10;19.80;95.00
31733;DHT22;18312;51.486;7.144;2023-09-19T11:29:37;20.00;94.10
31733;DHT22;18312;51.486;7.144;2023-09-19T11:32:04;20.30;94.10
31733;DHT22;18312;51.486;7.144;2023-09-19T11:34:37;20.30;93.90
31733;DHT22;18312;51.486;7.144;2023-09-19T11:37:03;20.40;94.20
31733;DHT22;18312;51.486;7.144;2023-09-19T11:40:05;20.50;93.80
31733;DHT22;18312;51.486;7.144;2023-09-19T11:42:45;20.30;94.30
31733;DHT22;18312;51.486;7.144;2023-09-19T11:48:05;20.00;93.80
31733;DHT22;18312;51.486;7.144;2023-09-19T11:50:33;20.20;94.20
31733;DHT22;18312;51.486;7.144;2023-09-19T11:53:00;20.80;93.60
31733;DHT22;18312;51.486;7.144;2023-09-19T11:55:28;20.70;93.30
31733;DHT22;18312;51.486;7.144;2023-09-19T11:57:57;20.70;93.70
31733;DHT22;18312;51.486;7.144;2023-09-19T12:00:25;20.70;92.70
31733;DHT22;18312;51.486;7.144;2023-09-19T12:02:52;20.70;92.60
31733;DHT22;18312;51.486;7.144;2023-09-19T12:05:27;20.50;92.10
31733;DHT22;18312;51.486;7.144;2023-09-19T12:07:54;20.50;92.10
31733;DHT22;18312;51.486;7.144;2023-09-19T12:10:21;20.50;91.70
31733;DHT22;18312;51.486;7.144;2023-09-19T12:12:49;20.50;91.70
31733;DHT22;18312;51.486;7.144;2023-09-19T12:15:23;20.40;92.70
31733;DHT22;18312;51.486;7.144;2023-09-19T12:17:54;20.50;92.00
31733;DHT22;18312;51.486;7.144;2023-09-19T12:20:21;20.60;91.30
31733;DHT22;18312;51.486;7.144;2023-09-19T12:22:49;20.50;91.00
31733;DHT22;18312;51.486;7.144;2023-09-19T12:25:15;20.50;90.70
31733;DHT22;18312;51.486;7.144;2023-09-19T12:27:45;20.50;90.70
31733;DHT22;18312;51.486;7.144;2023-09-19T12:30:12;20.70;91.30
31733;DHT22;18312;51.486;7.144;2023-09-19T12:32:42;20.90;90.70
31733;DHT22;18312;51.486;7.144;2023-09-19T12:35:09;21.00;88.70
31733;DHT22;18312;51.486;7.144;2023-09-19T12:37:37;20.90;89.30
31733;DHT22;18312;51.486;7.144;2023-09-19T12:40:14;20.90;88.80
31733;DHT22;18312;51.486;7.144;2023-09-19T12:42:43;21.00;89.20
31733;DHT22;18312;51.486;7.144;2023-09-19T12:45:10;21.00;88.30
31733;DHT22;18312;51.486;7.144;2023-09-19T12:47:39;21.30;90.00
31733;DHT22;18312;51.486;7.144;2023-09-19T12:50:11;21.50;87.60
31733;DHT22;18312;51.486;7.144;2023-09-19T12:52:44;21.60;87.40
31733;DHT22;18312;51.486;7.144;2023-09-19T12:55:21;21.40;85.40
31733;DHT22;18312;51.486;7.144;2023-09-19T12:58:08;21.40;84.10
31733;DHT22;18312;51.486;7.144;2023-09-19T13:00:36;21.60;85.90
31733;DHT22;18312;51.486;7.144;2023-09-19T13:03:17;21.80;84.20
31733;DHT22;18312;51.486;7.144;2023-09-19T13:05:52;21.50;85.30
31733;DHT22;18312;51.486;7.144;2023-09-19T13:08:23;21.30;83.40
31733;DHT22;18312;51.486;7.144;2023-09-19T13:11:08;21.40;83.00
31733;DHT22;18312;51.486;7.144;2023-09-19T13:13:38;21.40;82.20
31733;DHT22;18312;51.486;7.144;2023-09-19T13:16:05;21.40;83.40
31733;DHT22;18312;51.486;7.144;2023-09-19T13:18:48;21.30;82.50
31733;DHT22;18312;51.486;7.144;2023-09-19T13:21:28;21.30;83.80
31733;DHT22;18312;51.486;7.144;2023-09-19T13:24:19;21.10;81.60
31733;DHT22;18312;51.486;7.144;2023-09-19T13:26:46;21.30;83.80
31733;DHT22;18312;51.486;7.144;2023-09-19T13:29:13;21.40;83.80
31733;DHT22;18312;51.486;7.144;2023-09-19T13:31:46;21.50;83.00
31733;DHT22;18312;51.486;7.144;2023-09-19T13:34:12;21.50;84.10
31733;DHT22;18312;51.486;7.144;2023-09-19T13:36:43;21.70;83.60
31733;DHT22;18312;51.486;7.144;2023-09-19T13:39:11;21.90;82.90
31733;DHT22;18312;51.486;7.144;2023-09-19T13:41:39;21.70;81.40
31733;DHT22;18312;51.486;7.144;2023-09-19T13:44:07;21.70;82.90
31733;DHT22;18312;51.486;7.144;2023-09-19T13:46:36;21.90;81.40
31733;DHT22;18312;51.486;7.144;2023-09-19T13:49:03;21.90;79.90
31733;DHT22;18312;51.486;7.144;2023-09-19T13:51:30;21.80;81.10
31733;DHT22;18312;51.486;7.144;2023-09-19T13:53:59;21.70;82.30
31733;DHT22;18312;51.486;7.144;2023-09-19T13:56:26;21.60;82.30
31733;DHT22;18312;51.486;7.144;2023-09-19T13:58:53;21.60;83.00
31733;DHT22;18312;51.486;7.144;2023-09-19T14:01:20;21.50;82.60
31733;DHT22;18312;51.486;7.144;2023-09-19T14:03:47;21.40;83.40
31733;DHT22;18312;51.486;7.144;2023-09-19T14:06:16;21.50;82.60
31733;DHT22;18312;51.486;7.144;2023-09-19T14:08:43;21.20;82.50
31733;DHT22;18312;51.486;7.144;2023-09-19T14:11:14;21.00;85.20
31733;DHT22;18312;51.486;7.144;2023-09-19T14:13:42;21.00;86.10
31733;DHT22;18312;51.486;7.144;2023-09-19T14:16:12;20.90;85.20
31733;DHT22;18312;51.486;7.144;2023-09-19T14:18:39;20.80;86.20
31733;DHT22;18312;51.486;7.144;2023-09-19T14:21:07;20.80;84.90
31733;DHT22;18312;51.486;7.144;2023-09-19T14:23:37;20.90;86.40
31733;DHT22;18312;51.486;7.144;2023-09-19T14:26:03;20.70;85.00
31733;DHT22;18312;51.486;7.144;2023-09-19T14:28:33;20.50;85.20
31733;DHT22;18312;51.486;7.144;2023-09-19T14:31:04;20.50;86.20
31733;DHT22;18312;51.486;7.144;2023-09-19T14:33:31;20.50;85.60
31733;DHT22;18312;51.486;7.144;2023-09-19T14:35:58;20.50;86.20
31733;DHT22;18312;51.486;7.144;2023-09-19T14:38:25;20.40;86.00
31733;DHT22;18312;51.486;7.144;2023-09-19T14:40:59;20.40;86.50
31733;DHT22;18312;51.486;7.144;2023-09-19T14:43:26;20.40;86.80
31733;DHT22;18312;51.486;7.144;2023-09-19T14:45:56;20.40;87.10
31733;DHT22;18312;51.486;7.144;2023-09-19T14:48:23;20.40;87.30
31733;DHT22;18312;51.486;7.144;2023-09-19T14:50:51;20.40;87.30
31733;DHT22;18312;51.486;7.144;2023-09-19T14:53:18;20.30;87.40
31733;DHT22;18312;51.486;7.144;2023-09-19T14:55:52;20.40;88.60
31733;DHT22;18312;51.486;7.144;2023-09-19T14:58:21;20.40;87.50
31733;DHT22;18312;51.486;7.144;2023-09-19T15:00:48;20.20;87.80
31733;DHT22;18312;51.486;7.144;2023-09-19T15:03:20;20.20;88.90
31733;DHT22;18312;51.486;7.144;2023-09-19T15:05:47;20.00;88.50
31733;DHT22;18312;51.486;7.144;2023-09-19T15:08:14;20.00;88.80
31733;DHT22;18312;51.486;7.144;2023-09-19T15:10:49;20.00;89.40
31733;DHT22;18312;51.486;7.144;2023-09-19T15:13:18;20.00;88.90
31733;DHT22;18312;51.486;7.144;2023-09-19T15:15:45;20.00;90.10
31733;DHT22;18312;51.486;7.144;2023-09-19T15:18:14;19.90;90.00
31733;DHT22;18312;51.486;7.144;2023-09-19T15:20:44;19.90;90.20
31733;DHT22;18312;51.486;7.144;2023-09-19T15:23:11;19.70;90.60
31733;DHT22;18312;51.486;7.144;2023-09-19T15:25:38;19.70;90.40
31733;DHT22;18312;51.486;7.144;2023-09-19T15:28:06;19.70;90.70
31733;DHT22;18312;51.486;7.144;2023-09-19T15:30:37;19.70;90.60
31733;DHT22;18312;51.486;7.144;2023-09-19T15:33:04;19.60;90.60
31733;DHT22;18312;51.486;7.144;2023-09-19T15:35:33;19.60;90.50
31733;DHT22;18312;51.486;7.144;2023-09-19T15:38:04;19.50;90.30
31733;DHT22;18312;51.486;7.144;2023-09-19T15:40:30;19.50;90.50
31733;DHT22;18312;51.486;7.144;2023-09-19T15:42:57;19.50;90.30
31733;DHT22;18312;51.486;7.144;2023-09-19T15:45:25;19.60;90.50
31733;DHT22;18312;51.486;7.144;2023-09-19T15:47:53;19.70;90.30
31733;DHT22;18312;51.486;7.144;2023-09-19T15:50:20;19.80;90.60
31733;DHT22;18312;51.486;7.144;2023-09-19T15:52:53;19.90;90.60
31733;DHT22;18312;51.486;7.144;2023-09-19T15:55:23;20.00;90.10